sensor_id;sensor_type;location;lat;lon;timestamp;P1;durP1;ratioP1;P2;durP2;ratioP2
19260;SDS011;9764;48.114;11.670;2023-01-04T00:01:35;3.20;;;2.65;;
19260;SDS011;9764;48.114;11.670;2023-01-04T00:04:05;2.85;;;2.35;;
19260;SDS011;9764;48.114;11.670;2023-01-04T00:06:33;2.78;;;2.58;;
19260;SDS011;9764;48.114;11.670;2023-01-04T00:09:02;2.53;;;2.33;;
19260;SDS011;9764;48.114;11.670;2023-01-04T00:11:30;4.00;;;2.55;;
19260;SDS011;9764;48.114;11.670;2023-01-04T00:13:59;3.95;;;2.47;;
19260;SDS011;9764;48.114;11.670;2023-01-04T00:16:27;2.50;;;2.10;;
19260;SDS011;9764;48.114;11.670;2023-01-04T00:18:56;3.10;;;2.25;;
19260;SDS011;9764;48.114;11.670;2023-01-04T00:21:27;2.50;;;2.28;;
19260;SDS011;9764;48.114;11.670;2023-01-04T00:23:57;5.18;;;2.47;;
19260;SDS011;9764;48.114;11.670;2023-01-04T00:26:27;2.60;;;2.40;;
19260;SDS011;9764;48.114;11.670;2023-01-04T00:28:58;2.42;;;2.22;;
19260;SDS011;9764;48.114;11.670;2023-01-04T00:31:28;2.33;;;2.13;;
19260;SDS011;9764;48.114;11.670;2023-01-04T00:33:57;3.05;;;2.60;;
19260;SDS011;9764;48.114;11.670;2023-01-04T00:36:29;3.63;;;2.50;;
19260;SDS011;9764;48.114;11.670;2023-01-04T00:38:58;2.88;;;2.63;;
19260;SDS011;9764;48.114;11.670;2023-01-04T00:41:38;3.22;;;2.38;;
19260;SDS011;9764;48.114;11.670;2023-01-04T00:44:25;3.97;;;2.63;;
19260;SDS011;9764;48.114;11.670;2023-01-04T00:46:54;3.40;;;2.55;;
19260;SDS011;9764;48.114;11.670;2023-01-04T00:49:22;2.85;;;2.55;;
19260;SDS011;9764;48.114;11.670;2023-01-04T00:51:52;2.45;;;2.25;;
19260;SDS011;9764;48.114;11.670;2023-01-04T00:54:21;2.50;;;2.30;;
19260;SDS011;9764;48.114;11.670;2023-01-04T00:56:49;3.60;;;2.47;;
19260;SDS011;9764;48.114;11.670;2023-01-04T00:59:19;3.00;;;2.30;;
19260;SDS011;9764;48.114;11.670;2023-01-04T01:01:48;2.67;;;2.47;;
19260;SDS011;9764;48.114;11.670;2023-01-04T01:04:18;2.25;;;2.05;;
19260;SDS011;9764;48.114;11.670;2023-01-04T01:06:48;3.25;;;2.42;;
19260;SDS011;9764;48.114;11.670;2023-01-04T01:09:19;2.65;;;2.22;;
19260;SDS011;9764;48.114;11.670;2023-01-04T01:11:50;3.20;;;2.70;;
19260;SDS011;9764;48.114;11.670;2023-01-04T01:14:20;3.03;;;2.35;;
19260;SDS011;9764;48.114;11.670;2023-01-04T01:16:50;4.10;;;2.58;;
19260;SDS011;9764;48.114;11.670;2023-01-04T01:19:23;2.45;;;2.25;;
19260;SDS011;9764;48.114;11.670;2023-01-04T01:21:53;2.80;;;2.42;;
19260;SDS011;9764;48.114;11.670;2023-01-04T01:24:24;3.05;;;2.50;;
19260;SDS011;9764;48.114;11.670;2023-01-04T01:26:53;2.72;;;2.10;;
19260;SDS011;9764;48.114;11.670;2023-01-04T01:29:22;3.15;;;2.50;;
19260;SDS011;9764;48.114;11.670;2023-01-04T01:31:50;3.25;;;2.38;;
19260;SDS011;9764;48.114;11.670;2023-01-04T01:34:19;2.53;;;2.33;;
19260;SDS011;9764;48.114;11.670;2023-01-04T01:36:47;3.40;;;2.13;;
19260;SDS011;9764;48.114;11.670;2023-01-04T01:39:16;4.45;;;2.40;;
19260;SDS011;9764;48.114;11.670;2023-01-04T01:41:45;3.13;;;2.25;;
19260;SDS011;9764;48.114;11.670;2023-01-04T01:47:37;2.85;;;2.35;;
19260;SDS011;9764;48.114;11.670;2023-01-04T01:50:14;3.03;;;2.63;;
19260;SDS011;9764;48.114;11.670;2023-01-04T01:52:52;2.65;;;2.30;;
19260;SDS011;9764;48.114;11.670;2023-01-04T01:55:22;2.65;;;2.28;;
19260;SDS011;9764;48.114;11.670;2023-01-04T01:57:52;2.58;;;2.30;;
19260;SDS011;9764;48.114;11.670;2023-01-04T02:00:21;4.68;;;2.70;;
19260;SDS011;9764;48.114;11.670;2023-01-04T02:02:52;2.20;;;2.00;;
19260;SDS011;9764;48.114;11.670;2023-01-04T02:05:36;3.72;;;2.60;;
19260;SDS011;9764;48.114;11.670;2023-01-04T02:08:05;4.28;;;2.42;;
19260;SDS011;9764;48.114;11.670;2023-01-04T02:10:34;2.72;;;2.05;;
19260;SDS011;9764;48.114;11.670;2023-01-04T02:13:06;4.07;;;2.92;;
19260;SDS011;9764;48.114;11.670;2023-01-04T02:15:43;4.03;;;2.53;;
19260;SDS011;9764;48.114;11.670;2023-01-04T02:18:23;2.55;;;2.30;;
19260;SDS011;9764;48.114;11.670;2023-01-04T02:20:58;3.90;;;2.70;;
19260;SDS011;9764;48.114;11.670;2023-01-04T02:32:52;2.75;;;2.47;;
19260;SDS011;9764;48.114;11.670;2023-01-04T02:35:27;4.85;;;2.63;;
19260;SDS011;9764;48.114;11.670;2023-01-04T02:38:05;4.32;;;2.70;;
19260;SDS011;9764;48.114;11.670;2023-01-04T02:40:43;4.30;;;2.90;;
19260;SDS011;9764;48.114;11.670;2023-01-04T02:43:18;2.85;;;2.60;;
19260;SDS011;9764;48.114;11.670;2023-01-04T02:46:12;3.75;;;2.90;;
19260;SDS011;9764;48.114;11.670;2023-01-04T02:48:45;3.83;;;2.80;;
19260;SDS011;9764;48.114;11.670;2023-01-04T02:51:42;3.90;;;3.10;;
19260;SDS011;9764;48.114;11.670;2023-01-04T02:54:11;5.18;;;3.05;;
19260;SDS011;9764;48.114;11.670;2023-01-04T02:56:46;4.75;;;2.83;;
19260;SDS011;9764;48.114;11.670;2023-01-04T02:59:37;3.05;;;2.53;;
19260;SDS011;9764;48.114;11.670;2023-01-04T03:02:29;3.60;;;2.80;;
19260;SDS011;9764;48.114;11.670;2023-01-04T03:05:31;4.13;;;3.00;;
19260;SDS011;9764;48.114;11.670;2023-01-04T03:08:27;3.70;;;3.05;;
19260;SDS011;9764;48.114;11.670;2023-01-04T03:11:03;3.67;;;2.95;;
19260;SDS011;9764;48.114;11.670;2023-01-04T03:13:52;4.68;;;2.95;;
19260;SDS011;9764;48.114;11.670;2023-01-04T03:16:24;3.75;;;3.08;;
19260;SDS011;9764;48.114;11.670;2023-01-04T03:18:53;3.55;;;2.97;;
19260;SDS011;9764;48.114;11.670;2023-01-04T03:21:31;5.30;;;2.90;;
19260;SDS011;9764;48.114;11.670;2023-01-04T03:23:59;3.53;;;2.92;;
19260;SDS011;9764;48.114;11.670;2023-01-04T03:26:49;3.33;;;2.67;;
19260;SDS011;9764;48.114;11.670;2023-01-04T03:29:50;4.22;;;2.67;;
19260;SDS011;9764;48.114;11.670;2023-01-04T03:32:42;4.15;;;2.90;;
19260;SDS011;9764;48.114;11.670;2023-01-04T03:35:48;3.97;;;2.80;;
19260;SDS011;9764;48.114;11.670;2023-01-04T03:38:21;3.45;;;2.88;;
19260;SDS011;9764;48.114;11.670;2023-01-04T03:41:19;3.78;;;2.70;;
19260;SDS011;9764;48.114;11.670;2023-01-04T03:44:10;3.13;;;2.60;;
19260;SDS011;9764;48.114;11.670;2023-01-04T03:47:02;3.78;;;2.67;;
19260;SDS011;9764;48.114;11.670;2023-01-04T03:49:51;5.28;;;2.97;;
19260;SDS011;9764;48.114;11.670;2023-01-04T03:52:23;5.85;;;3.17;;
19260;SDS011;9764;48.114;11.670;2023-01-04T03:54:55;3.95;;;2.92;;
19260;SDS011;9764;48.114;11.670;2023-01-04T03:57:25;4.07;;;2.50;;
19260;SDS011;9764;48.114;11.670;2023-01-04T04:02:57;3.30;;;2.60;;
19260;SDS011;9764;48.114;11.670;2023-01-04T04:05:33;3.10;;;2.35;;
19260;SDS011;9764;48.114;11.670;2023-01-04T04:08:22;2.58;;;2.38;;
19260;SDS011;9764;48.114;11.670;2023-01-04T04:10:56;4.30;;;2.55;;
19260;SDS011;9764;48.114;11.670;2023-01-04T04:13:45;3.25;;;2.60;;
19260;SDS011;9764;48.114;11.670;2023-01-04T04:16:13;2.47;;;2.28;;
19260;SDS011;9764;48.114;11.670;2023-01-04T04:18:42;3.03;;;2.42;;
19260;SDS011;9764;48.114;11.670;2023-01-04T04:21:11;3.75;;;2.47;;
19260;SDS011;9764;48.114;11.670;2023-01-04T04:23:39;2.55;;;2.15;;
19260;SDS011;9764;48.114;11.670;2023-01-04T04:26:09;3.95;;;2.58;;
19260;SDS011;9764;48.114;11.670;2023-01-04T04:28:37;3.30;;;2.10;;
19260;SDS011;9764;48.114;11.670;2023-01-04T04:31:05;2.35;;;2.10;;
19260;SDS011;9764;48.114;11.670;2023-01-04T04:33:34;3.08;;;2.20;;
19260;SDS011;9764;48.114;11.670;2023-01-04T04:36:02;2.65;;;2.13;;
19260;SDS011;9764;48.114;11.670;2023-01-04T04:38:31;3.03;;;2.70;;
19260;SDS011;9764;48.114;11.670;2023-01-04T04:41:04;2.50;;;2.30;;
19260;SDS011;9764;48.114;11.670;2023-01-04T04:43:52;2.70;;;2.28;;
19260;SDS011;9764;48.114;11.670;2023-01-04T04:46:21;2.28;;;2.08;;
19260;SDS011;9764;48.114;11.670;2023-01-04T04:48:49;2.63;;;2.30;;
19260;SDS011;9764;48.114;11.670;2023-01-04T04:51:17;3.13;;;2.47;;
19260;SDS011;9764;48.114;11.670;2023-01-04T04:53:46;2.53;;;2.20;;
19260;SDS011;9764;48.114;11.670;2023-01-04T04:56:15;3.63;;;2.33;;
19260;SDS011;9764;48.114;11.670;2023-01-04T04:58:43;2.53;;;2.08;;
19260;SDS011;9764;48.114;11.670;2023-01-04T05:01:12;4.13;;;2.20;;
19260;SDS011;9764;48.114;11.670;2023-01-04T05:03:41;2.53;;;2.13;;
19260;SDS011;9764;48.114;11.670;2023-01-04T05:06:09;2.83;;;2.28;;
19260;SDS011;9764;48.114;11.670;2023-01-04T05:08:38;3.97;;;2.30;;
19260;SDS011;9764;48.114;11.670;2023-01-04T05:11:07;2.38;;;2.00;;
19260;SDS011;9764;48.114;11.670;2023-01-04T05:13:36;7.68;;;2.20;;
19260;SDS011;9764;48.114;11.670;2023-01-04T05:16:05;4.25;;;2.10;;
19260;SDS011;9764;48.114;11.670;2023-01-04T05:18:36;2.67;;;1.95;;
19260;SDS011;9764;48.114;11.670;2023-01-04T05:21:04;4.60;;;2.78;;
19260;SDS011;9764;48.114;11.670;2023-01-04T05:23:32;2.60;;;2.00;;
19260;SDS011;9764;48.114;11.670;2023-01-04T05:26:01;2.38;;;2.17;;
19260;SDS011;9764;48.114;11.670;2023-01-04T05:28:30;4.22;;;2.45;;
19260;SDS011;9764;48.114;11.670;2023-01-04T05:30:58;3.35;;;2.40;;
19260;SDS011;9764;48.114;11.670;2023-01-04T05:33:27;2.88;;;1.90;;
19260;SDS011;9764;48.114;11.670;2023-01-04T05:35:58;2.20;;;1.90;;
19260;SDS011;9764;48.114;11.670;2023-01-04T05:38:28;3.25;;;1.90;;
19260;SDS011;9764;48.114;11.670;2023-01-04T05:40:56;2.40;;;2.17;;
19260;SDS011;9764;48.114;11.670;2023-01-04T05:43:25;2.13;;;1.90;;
19260;SDS011;9764;48.114;11.670;2023-01-04T05:45:53;2.40;;;2.20;;
19260;SDS011;9764;48.114;11.670;2023-01-04T05:48:23;4.43;;;1.98;;
19260;SDS011;9764;48.114;11.670;2023-01-04T05:50:52;2.35;;;2.15;;
19260;SDS011;9764;48.114;11.670;2023-01-04T05:53:21;2.22;;;2.03;;
19260;SDS011;9764;48.114;11.670;2023-01-04T05:55:49;2.70;;;2.22;;
19260;SDS011;9764;48.114;11.670;2023-01-04T05:58:18;2.92;;;1.90;;
19260;SDS011;9764;48.114;11.670;2023-01-04T06:00:46;2.60;;;2.20;;
19260;SDS011;9764;48.114;11.670;2023-01-04T06:03:14;2.08;;;1.83;;
19260;SDS011;9764;48.114;11.670;2023-01-04T06:05:42;2.63;;;1.88;;
19260;SDS011;9764;48.114;11.670;2023-01-04T06:08:15;1.98;;;1.77;;
19260;SDS011;9764;48.114;11.670;2023-01-04T06:10:44;3.65;;;1.95;;
19260;SDS011;9764;48.114;11.670;2023-01-04T06:13:19;2.00;;;1.80;;
19260;SDS011;9764;48.114;11.670;2023-01-04T06:15:47;2.65;;;2.10;;
19260;SDS011;9764;48.114;11.670;2023-01-04T06:18:16;2.63;;;2.08;;
19260;SDS011;9764;48.114;11.670;2023-01-04T06:20:44;2.42;;;1.92;;
19260;SDS011;9764;48.114;11.670;2023-01-04T06:23:12;2.28;;;2.08;;
19260;SDS011;9764;48.114;11.670;2023-01-04T06:25:41;2.65;;;1.83;;
19260;SDS011;9764;48.114;11.670;2023-01-04T06:28:11;3.05;;;2.08;;
19260;SDS011;9764;48.114;11.670;2023-01-04T06:30:39;1.70;;;1.60;;
19260;SDS011;9764;48.114;11.670;2023-01-04T06:33:07;2.17;;;1.98;;
19260;SDS011;9764;48.114;11.670;2023-01-04T06:35:35;3.85;;;2.00;;
19260;SDS011;9764;48.114;11.670;2023-01-04T06:38:04;2.00;;;1.80;;
19260;SDS011;9764;48.114;11.670;2023-01-04T06:40:32;2.53;;;1.83;;
19260;SDS011;9764;48.114;11.670;2023-01-04T06:43:00;2.13;;;1.92;;
19260;SDS011;9764;48.114;11.670;2023-01-04T06:45:30;2.78;;;1.98;;
19260;SDS011;9764;48.114;11.670;2023-01-04T06:47:58;1.67;;;1.58;;
19260;SDS011;9764;48.114;11.670;2023-01-04T06:50:34;2.25;;;1.80;;
19260;SDS011;9764;48.114;11.670;2023-01-04T06:53:03;1.83;;;1.60;;
19260;SDS011;9764;48.114;11.670;2023-01-04T06:55:31;4.07;;;2.28;;
19260;SDS011;9764;48.114;11.670;2023-01-04T06:57:59;1.63;;;1.50;;
19260;SDS011;9764;48.114;11.670;2023-01-04T07:00:27;2.78;;;1.60;;
19260;SDS011;9764;48.114;11.670;2023-01-04T07:02:57;2.45;;;1.77;;
19260;SDS011;9764;48.114;11.670;2023-01-04T07:05:41;1.70;;;1.60;;
19260;SDS011;9764;48.114;11.670;2023-01-04T07:08:09;2.20;;;1.83;;
19260;SDS011;9764;48.114;11.670;2023-01-04T07:10:38;2.60;;;1.95;;
19260;SDS011;9764;48.114;11.670;2023-01-04T07:13:07;1.90;;;1.80;;
19260;SDS011;9764;48.114;11.670;2023-01-04T07:15:37;1.80;;;1.70;;
19260;SDS011;9764;48.114;11.670;2023-01-04T07:18:06;1.88;;;1.70;;
19260;SDS011;9764;48.114;11.670;2023-01-04T07:20:36;1.70;;;1.55;;
19260;SDS011;9764;48.114;11.670;2023-01-04T07:23:04;3.40;;;1.70;;
19260;SDS011;9764;48.114;11.670;2023-01-04T07:25:33;1.63;;;1.52;;
19260;SDS011;9764;48.114;11.670;2023-01-04T07:28:02;1.95;;;1.75;;
19260;SDS011;9764;48.114;11.670;2023-01-04T07:30:31;1.70;;;1.60;;
19260;SDS011;9764;48.114;11.670;2023-01-04T07:33:00;2.20;;;1.70;;
19260;SDS011;9764;48.114;11.670;2023-01-04T07:35:28;1.80;;;1.70;;
19260;SDS011;9764;48.114;11.670;2023-01-04T07:37:57;2.08;;;1.85;;
19260;SDS011;9764;48.114;11.670;2023-01-04T07:40:25;1.70;;;1.60;;
19260;SDS011;9764;48.114;11.670;2023-01-04T07:42:54;1.63;;;1.52;;
19260;SDS011;9764;48.114;11.670;2023-01-04T07:45:23;1.60;;;1.50;;
19260;SDS011;9764;48.114;11.670;2023-01-04T07:47:52;3.17;;;1.70;;
19260;SDS011;9764;48.114;11.670;2023-01-04T07:50:22;2.03;;;1.70;;
19260;SDS011;9764;48.114;11.670;2023-01-04T07:52:50;1.73;;;1.63;;
19260;SDS011;9764;48.114;11.670;2023-01-04T07:55:18;2.00;;;1.80;;
19260;SDS011;9764;48.114;11.670;2023-01-04T07:57:46;1.52;;;1.42;;
19260;SDS011;9764;48.114;11.670;2023-01-04T08:00:15;2.55;;;1.50;;
19260;SDS011;9764;48.114;11.670;2023-01-04T08:02:43;1.67;;;1.58;;
19260;SDS011;9764;48.114;11.670;2023-01-04T08:05:12;2.00;;;1.70;;
19260;SDS011;9764;48.114;11.670;2023-01-04T08:07:42;1.40;;;1.30;;
19260;SDS011;9764;48.114;11.670;2023-01-04T08:10:10;1.65;;;1.55;;
19260;SDS011;9764;48.114;11.670;2023-01-04T08:12:38;1.60;;;1.50;;
19260;SDS011;9764;48.114;11.670;2023-01-04T08:15:06;1.65;;;1.55;;
19260;SDS011;9764;48.114;11.670;2023-01-04T08:17:35;1.63;;;1.52;;
19260;SDS011;9764;48.114;11.670;2023-01-04T08:20:04;1.98;;;1.55;;
19260;SDS011;9764;48.114;11.670;2023-01-04T08:22:33;2.75;;;1.83;;
19260;SDS011;9764;48.114;11.670;2023-01-04T08:25:02;1.85;;;1.70;;
19260;SDS011;9764;48.114;11.670;2023-01-04T08:27:32;1.58;;;1.48;;
19260;SDS011;9764;48.114;11.670;2023-01-04T08:30:00;1.60;;;1.50;;
19260;SDS011;9764;48.114;11.670;2023-01-04T08:32:29;1.55;;;1.45;;
19260;SDS011;9764;48.114;11.670;2023-01-04T08:34:57;1.60;;;1.50;;
19260;SDS011;9764;48.114;11.670;2023-01-04T08:37:25;1.75;;;1.65;;
19260;SDS011;9764;48.114;11.670;2023-01-04T08:39:54;1.50;;;1.40;;
19260;SDS011;9764;48.114;11.670;2023-01-04T08:42:24;1.60;;;1.50;;
19260;SDS011;9764;48.114;11.670;2023-01-04T08:44:57;1.65;;;1.35;;
19260;SDS011;9764;48.114;11.670;2023-01-04T08:47:27;1.58;;;1.45;;
19260;SDS011;9764;48.114;11.670;2023-01-04T08:49:56;1.98;;;1.63;;
19260;SDS011;9764;48.114;11.670;2023-01-04T08:52:35;1.60;;;1.50;;
19260;SDS011;9764;48.114;11.670;2023-01-04T08:55:03;1.50;;;1.40;;
19260;SDS011;9764;48.114;11.670;2023-01-04T08:57:40;1.60;;;1.50;;
19260;SDS011;9764;48.114;11.670;2023-01-04T09:00:09;1.58;;;1.48;;
19260;SDS011;9764;48.114;11.670;2023-01-04T09:02:38;1.60;;;1.50;;
19260;SDS011;9764;48.114;11.670;2023-01-04T09:05:07;1.50;;;1.40;;
19260;SDS011;9764;48.114;11.670;2023-01-04T09:07:48;1.80;;;1.42;;
19260;SDS011;9764;48.114;11.670;2023-01-04T09:10:16;1.92;;;1.73;;
19260;SDS011;9764;48.114;11.670;2023-01-04T09:12:46;1.60;;;1.48;;
19260;SDS011;9764;48.114;11.670;2023-01-04T09:15:14;2.08;;;1.60;;
19260;SDS011;9764;48.114;11.670;2023-01-04T09:17:44;1.67;;;1.58;;
19260;SDS011;9764;48.114;11.670;2023-01-04T09:20:32;1.70;;;1.60;;
19260;SDS011;9764;48.114;11.670;2023-01-04T09:23:00;1.42;;;1.30;;
19260;SDS011;9764;48.114;11.670;2023-01-04T09:25:28;1.35;;;1.25;;
19260;SDS011;9764;48.114;11.670;2023-01-04T09:27:58;1.45;;;1.35;;
19260;SDS011;9764;48.114;11.670;2023-01-04T09:30:27;1.65;;;1.55;;
19260;SDS011;9764;48.114;11.670;2023-01-04T09:32:57;2.28;;;1.33;;
19260;SDS011;9764;48.114;11.670;2023-01-04T09:35:25;1.60;;;1.50;;
19260;SDS011;9764;48.114;11.670;2023-01-04T09:37:53;1.30;;;1.20;;
19260;SDS011;9764;48.114;11.670;2023-01-04T09:40:23;1.45;;;1.30;;
19260;SDS011;9764;48.114;11.670;2023-01-04T09:42:59;1.50;;;1.40;;
19260;SDS011;9764;48.114;11.670;2023-01-04T09:45:48;1.30;;;1.20;;
19260;SDS011;9764;48.114;11.670;2023-01-04T09:48:20;3.63;;;1.33;;
19260;SDS011;9764;48.114;11.670;2023-01-04T09:50:53;1.45;;;1.35;;
19260;SDS011;9764;48.114;11.670;2023-01-04T09:53:26;1.40;;;1.30;;
19260;SDS011;9764;48.114;11.670;2023-01-04T09:55:59;1.30;;;1.20;;
19260;SDS011;9764;48.114;11.670;2023-01-04T09:58:37;1.50;;;1.40;;
19260;SDS011;9764;48.114;11.670;2023-01-04T10:01:10;1.67;;;1.20;;
19260;SDS011;9764;48.114;11.670;2023-01-04T10:03:45;1.52;;;1.10;;
19260;SDS011;9764;48.114;11.670;2023-01-04T10:06:19;1.20;;;1.10;;
19260;SDS011;9764;48.114;11.670;2023-01-04T10:08:48;1.70;;;1.45;;
19260;SDS011;9764;48.114;11.670;2023-01-04T10:11:19;1.55;;;1.45;;
19260;SDS011;9764;48.114;11.670;2023-01-04T10:14:08;1.40;;;1.30;;
19260;SDS011;9764;48.114;11.670;2023-01-04T10:16:54;2.25;;;1.58;;
19260;SDS011;9764;48.114;11.670;2023-01-04T10:19:44;1.20;;;1.10;;
19260;SDS011;9764;48.114;11.670;2023-01-04T10:22:47;1.25;;;1.15;;
19260;SDS011;9764;48.114;11.670;2023-01-04T10:25:21;1.20;;;1.10;;
19260;SDS011;9764;48.114;11.670;2023-01-04T10:27:56;1.50;;;1.38;;
19260;SDS011;9764;48.114;11.670;2023-01-04T10:30:36;0.90;;;0.90;;
19260;SDS011;9764;48.114;11.670;2023-01-04T10:33:11;1.20;;;1.10;;
19260;SDS011;9764;48.114;11.670;2023-01-04T10:35:41;1.35;;;1.25;;
19260;SDS011;9764;48.114;11.670;2023-01-04T10:38:14;2.10;;;1.20;;
19260;SDS011;9764;48.114;11.670;2023-01-04T10:40:45;1.63;;;1.20;;
19260;SDS011;9764;48.114;11.670;2023-01-04T10:43:21;1.30;;;1.20;;
19260;SDS011;9764;48.114;11.670;2023-01-04T10:46:20;1.20;;;1.10;;
19260;SDS011;9764;48.114;11.670;2023-01-04T10:48:52;1.23;;;1.13;;
19260;SDS011;9764;48.114;11.670;2023-01-04T10:51:25;1.85;;;1.20;;
19260;SDS011;9764;48.114;11.670;2023-01-04T10:53:58;4.07;;;1.35;;
19260;SDS011;9764;48.114;11.670;2023-01-04T10:56:34;2.25;;;1.60;;
19260;SDS011;9764;48.114;11.670;2023-01-04T10:59:09;4.88;;;2.00;;
19260;SDS011;9764;48.114;11.670;2023-01-04T11:01:44;4.28;;;1.63;;
19260;SDS011;9764;48.114;11.670;2023-01-04T11:04:18;5.13;;;1.80;;
19260;SDS011;9764;48.114;11.670;2023-01-04T11:06:52;3.67;;;2.30;;
19260;SDS011;9764;48.114;11.670;2023-01-04T11:09:26;3.70;;;1.85;;
19260;SDS011;9764;48.114;11.670;2023-01-04T11:11:59;3.35;;;2.22;;
19260;SDS011;9764;48.114;11.670;2023-01-04T11:14:28;6.93;;;1.98;;
19260;SDS011;9764;48.114;11.670;2023-01-04T11:17:04;4.47;;;1.95;;
19260;SDS011;9764;48.114;11.670;2023-01-04T11:19:35;3.92;;;2.10;;
19260;SDS011;9764;48.114;11.670;2023-01-04T11:22:05;7.40;;;2.65;;
19260;SDS011;9764;48.114;11.670;2023-01-04T11:24:38;6.63;;;2.10;;
19260;SDS011;9764;48.114;11.670;2023-01-04T11:27:30;9.52;;;2.55;;
19260;SDS011;9764;48.114;11.670;2023-01-04T11:30:04;6.20;;;2.60;;
19260;SDS011;9764;48.114;11.670;2023-01-04T11:32:43;4.57;;;2.53;;
19260;SDS011;9764;48.114;11.670;2023-01-04T11:35:28;5.57;;;2.42;;
19260;SDS011;9764;48.114;11.670;2023-01-04T11:38:10;6.32;;;2.30;;
19260;SDS011;9764;48.114;11.670;2023-01-04T11:40:40;5.45;;;2.70;;
19260;SDS011;9764;48.114;11.670;2023-01-04T11:43:20;7.30;;;2.60;;
19260;SDS011;9764;48.114;11.670;2023-01-04T11:45:58;8.50;;;2.50;;
19260;SDS011;9764;48.114;11.670;2023-01-04T11:48:34;7.70;;;2.80;;
19260;SDS011;9764;48.114;11.670;2023-01-04T11:51:17;6.88;;;2.60;;
19260;SDS011;9764;48.114;11.670;2023-01-04T11:53:59;5.32;;;2.47;;
19260;SDS011;9764;48.114;11.670;2023-01-04T11:56:28;6.72;;;2.70;;
19260;SDS011;9764;48.114;11.670;2023-01-04T11:59:02;6.72;;;2.47;;
19260;SDS011;9764;48.114;11.670;2023-01-04T12:01:51;7.30;;;2.30;;
19260;SDS011;9764;48.114;11.670;2023-01-04T12:04:50;5.38;;;2.80;;
19260;SDS011;9764;48.114;11.670;2023-01-04T12:07:24;5.57;;;2.40;;
19260;SDS011;9764;48.114;11.670;2023-01-04T12:09:56;6.05;;;2.40;;
19260;SDS011;9764;48.114;11.670;2023-01-04T12:12:27;4.97;;;2.13;;
19260;SDS011;9764;48.114;11.670;2023-01-04T12:14:59;4.40;;;2.30;;
19260;SDS011;9764;48.114;11.670;2023-01-04T12:17:33;4.75;;;2.40;;
19260;SDS011;9764;48.114;11.670;2023-01-04T12:20:12;4.45;;;2.60;;
19260;SDS011;9764;48.114;11.670;2023-01-04T12:22:45;5.95;;;2.53;;
19260;SDS011;9764;48.114;11.670;2023-01-04T12:25:20;7.80;;;2.47;;
19260;SDS011;9764;48.114;11.670;2023-01-04T12:27:55;5.88;;;2.15;;
19260;SDS011;9764;48.114;11.670;2023-01-04T12:36:07;5.70;;;2.10;;
19260;SDS011;9764;48.114;11.670;2023-01-04T12:38:59;5.50;;;2.47;;
19260;SDS011;9764;48.114;11.670;2023-01-04T12:47:45;4.72;;;2.25;;
19260;SDS011;9764;48.114;11.670;2023-01-04T12:51:15;3.78;;;1.80;;
19260;SDS011;9764;48.114;11.670;2023-01-04T12:54:22;4.03;;;2.17;;
19260;SDS011;9764;48.114;11.670;2023-01-04T12:57:13;3.72;;;2.00;;
19260;SDS011;9764;48.114;11.670;2023-01-04T12:59:51;5.40;;;2.25;;
19260;SDS011;9764;48.114;11.670;2023-01-04T13:02:22;4.07;;;2.20;;
19260;SDS011;9764;48.114;11.670;2023-01-04T13:04:52;4.97;;;2.10;;
19260;SDS011;9764;48.114;11.670;2023-01-04T13:07:42;5.60;;;2.25;;
19260;SDS011;9764;48.114;11.670;2023-01-04T13:10:19;5.32;;;1.90;;
19260;SDS011;9764;48.114;11.670;2023-01-04T13:12:56;3.13;;;1.83;;
19260;SDS011;9764;48.114;11.670;2023-01-04T13:15:51;2.80;;;1.83;;
19260;SDS011;9764;48.114;11.670;2023-01-04T13:18:34;3.75;;;1.60;;
19260;SDS011;9764;48.114;11.670;2023-01-04T13:21:08;4.25;;;2.08;;
19260;SDS011;9764;48.114;11.670;2023-01-04T13:23:39;2.50;;;1.55;;
19260;SDS011;9764;48.114;11.670;2023-01-04T13:29:07;2.95;;;1.73;;
19260;SDS011;9764;48.114;11.670;2023-01-04T13:31:41;3.05;;;1.98;;
19260;SDS011;9764;48.114;11.670;2023-01-04T13:34:15;2.92;;;1.65;;
19260;SDS011;9764;48.114;11.670;2023-01-04T13:36:51;2.92;;;1.63;;
19260;SDS011;9764;48.114;11.670;2023-01-04T13:39:27;2.92;;;1.77;;
19260;SDS011;9764;48.114;11.670;2023-01-04T13:41:57;3.25;;;1.52;;
19260;SDS011;9764;48.114;11.670;2023-01-04T13:44:32;3.75;;;2.00;;
19260;SDS011;9764;48.114;11.670;2023-01-04T13:47:38;4.35;;;2.33;;
19260;SDS011;9764;48.114;11.670;2023-01-04T13:50:16;2.50;;;1.50;;
19260;SDS011;9764;48.114;11.670;2023-01-04T13:52:58;3.17;;;1.55;;
19260;SDS011;9764;48.114;11.670;2023-01-04T13:55:34;3.22;;;1.85;;
19260;SDS011;9764;48.114;11.670;2023-01-04T13:58:06;2.55;;;1.65;;
19260;SDS011;9764;48.114;11.670;2023-01-04T14:00:43;2.20;;;1.40;;
19260;SDS011;9764;48.114;11.670;2023-01-04T14:03:15;4.70;;;2.00;;
19260;SDS011;9764;48.114;11.670;2023-01-04T14:05:52;2.15;;;1.38;;
19260;SDS011;9764;48.114;11.670;2023-01-04T14:08:30;2.33;;;1.52;;
19260;SDS011;9764;48.114;11.670;2023-01-04T14:11:01;1.95;;;1.50;;
19260;SDS011;9764;48.114;11.670;2023-01-04T14:13:33;2.08;;;1.42;;
19260;SDS011;9764;48.114;11.670;2023-01-04T14:16:03;3.25;;;1.30;;
19260;SDS011;9764;48.114;11.670;2023-01-04T14:18:33;2.50;;;1.58;;
19260;SDS011;9764;48.114;11.670;2023-01-04T14:21:01;2.00;;;1.30;;
19260;SDS011;9764;48.114;11.670;2023-01-04T14:23:32;1.55;;;1.05;;
19260;SDS011;9764;48.114;11.670;2023-01-04T14:26:03;2.05;;;1.40;;
19260;SDS011;9764;48.114;11.670;2023-01-04T14:28:36;3.20;;;1.50;;
19260;SDS011;9764;48.114;11.670;2023-01-04T14:34:05;2.13;;;1.52;;
19260;SDS011;9764;48.114;11.670;2023-01-04T14:36:39;2.53;;;1.52;;
19260;SDS011;9764;48.114;11.670;2023-01-04T14:39:20;1.98;;;1.30;;
19260;SDS011;9764;48.114;11.670;2023-01-04T14:41:58;2.35;;;1.13;;
19260;SDS011;9764;48.114;11.670;2023-01-04T14:44:29;2.75;;;1.17;;
19260;SDS011;9764;48.114;11.670;2023-01-04T14:47:01;1.70;;;1.20;;
19260;SDS011;9764;48.114;11.670;2023-01-04T14:49:33;2.63;;;1.25;;
19260;SDS011;9764;48.114;11.670;2023-01-04T14:52:02;1.40;;;1.20;;
19260;SDS011;9764;48.114;11.670;2023-01-04T14:54:36;2.17;;;1.23;;
19260;SDS011;9764;48.114;11.670;2023-01-04T14:57:05;2.03;;;1.30;;
19260;SDS011;9764;48.114;11.670;2023-01-04T14:59:35;3.60;;;1.10;;
19260;SDS011;9764;48.114;11.670;2023-01-04T15:02:03;1.85;;;1.20;;
19260;SDS011;9764;48.114;11.670;2023-01-04T15:04:31;1.73;;;1.30;;
19260;SDS011;9764;48.114;11.670;2023-01-04T15:07:00;2.17;;;1.23;;
19260;SDS011;9764;48.114;11.670;2023-01-04T15:09:28;3.55;;;1.45;;
19260;SDS011;9764;48.114;11.670;2023-01-04T15:11:57;1.35;;;1.00;;
19260;SDS011;9764;48.114;11.670;2023-01-04T15:14:25;1.38;;;1.20;;
19260;SDS011;9764;48.114;11.670;2023-01-04T15:16:55;1.67;;;1.23;;
19260;SDS011;9764;48.114;11.670;2023-01-04T15:19:23;1.80;;;1.10;;
19260;SDS011;9764;48.114;11.670;2023-01-04T15:21:52;2.63;;;1.10;;
19260;SDS011;9764;48.114;11.670;2023-01-04T15:24:20;1.50;;;1.15;;
19260;SDS011;9764;48.114;11.670;2023-01-04T15:26:48;1.55;;;1.17;;
19260;SDS011;9764;48.114;11.670;2023-01-04T15:29:17;1.45;;;1.02;;
19260;SDS011;9764;48.114;11.670;2023-01-04T15:31:45;1.70;;;1.10;;
19260;SDS011;9764;48.114;11.670;2023-01-04T15:34:15;2.03;;;1.20;;
19260;SDS011;9764;48.114;11.670;2023-01-04T15:36:44;1.27;;;1.17;;
19260;SDS011;9764;48.114;11.670;2023-01-04T15:39:13;1.00;;;0.90;;
19260;SDS011;9764;48.114;11.670;2023-01-04T15:41:41;1.40;;;1.10;;
19260;SDS011;9764;48.114;11.670;2023-01-04T15:44:32;1.33;;;1.10;;
19260;SDS011;9764;48.114;11.670;2023-01-04T15:47:00;2.30;;;1.20;;
19260;SDS011;9764;48.114;11.670;2023-01-04T15:49:30;1.10;;;1.00;;
19260;SDS011;9764;48.114;11.670;2023-01-04T15:51:58;1.25;;;0.90;;
19260;SDS011;9764;48.114;11.670;2023-01-04T15:54:27;1.90;;;1.00;;
19260;SDS011;9764;48.114;11.670;2023-01-04T15:56:55;2.13;;;1.10;;
19260;SDS011;9764;48.114;11.670;2023-01-04T15:59:24;1.40;;;0.80;;